Time;durP1;ratioP1;P1;durP2;ratioP2;P2;SDS_P1;SDS_P2;PMS_P1;PMS_P2;Temp;Humidity;BMP_temperature;BMP_pressure;BME280_temperature;BME280_humidity;BME280_pressure;Samples;Min_cycle;Max_cycle;Signal;HPM_P1;HPM_P2
2023/12/13 00:01:39;;;;;;;8.20;4.25;;;1.30;99.90;;;;;;5058374;28;20459;-74
2023/12/13 00:04:05;;;;;;;6.95;4.30;;;1.40;99.90;;;;;;5076194;28;20389;-72
2023/12/13 00:06:31;;;;;;;8.00;4.88;;;1.40;99.90;;;;;;5076383;28;20025;-73
2023/12/13 00:08:57;;;;;;;7.05;4.50;;;1.40;99.90;;;;;;5076569;28;20021;-73
2023/12/13 00:11:23;;;;;;;6.55;4.30;;;1.30;99.90;;;;;;5076602;28;20052;-73
2023/12/13 00:13:48;;;;;;;6.53;3.90;;;1.30;99.90;;;;;;5076346;28;20401;-73
2023/12/13 00:16:14;;;;;;;7.80;4.40;;;1.30;99.90;;;;;;5076776;28;20582;-72
2023/12/13 00:18:41;;;;;;;8.98;4.82;;;1.30;99.90;;;;;;5075920;28;20093;-72
2023/12/13 00:21:06;;;;;;;6.95;4.22;;;1.30;99.90;;;;;;5058202;28;20038;-73
2023/12/13 00:23:32;;;;;;;7.72;4.63;;;1.30;99.90;;;;;;5076599;28;20112;-73
2023/12/13 00:25:58;;;;;;;8.05;4.57;;;1.40;99.90;;;;;;5076368;28;20400;-73
2023/12/13 00:28:23;;;;;;;6.70;4.07;;;1.30;99.90;;;;;;5075962;28;20025;-73
2023/12/13 00:30:49;;;;;;;8.23;4.72;;;1.30;99.90;;;;;;5075370;28;20020;-72
2023/12/13 00:33:15;;;;;;;8.05;4.90;;;1.30;99.90;;;;;;5076056;28;20103;-72
2023/12/13 00:35:40;;;;;;;8.38;4.28;;;1.40;99.90;;;;;;5076145;28;20119;-73
2023/12/13 00:38:06;;;;;;;8.07;4.10;;;1.30;99.90;;;;;;5076004;28;20029;-72
2023/12/13 00:40:32;;;;;;;7.10;4.40;;;1.30;99.90;;;;;;5076064;28;20029;-73
2023/12/13 00:42:57;;;;;;;7.10;4.72;;;1.30;99.90;;;;;;5075721;28;20036;-72
2023/12/13 00:45:23;;;;;;;9.90;4.95;;;1.30;99.90;;;;;;5075921;28;20024;-73
2023/12/13 00:47:49;;;;;;;6.20;4.43;;;1.30;99.90;;;;;;5075418;28;20029;-72
2023/12/13 00:50:15;;;;;;;9.25;4.43;;;1.30;99.90;;;;;;5075629;28;20485;-73
2023/12/13 00:52:41;;;;;;;7.57;4.70;;;1.30;99.90;;;;;;5075603;28;20040;-73
2023/12/13 00:55:07;;;;;;;6.75;4.50;;;1.30;99.90;;;;;;5058056;28;20115;-72
2023/12/13 00:57:34;;;;;;;6.80;4.57;;;1.40;99.90;;;;;;5075429;28;20032;-73
2023/12/13 00:59:59;;;;;;;8.45;5.18;;;1.30;99.90;;;;;;5075440;28;20028;-73
2023/12/13 01:02:27;;;;;;;6.25;4.07;;;1.40;99.90;;;;;;5075344;28;20043;-73
2023/12/13 01:04:52;;;;;;;6.43;3.78;;;1.30;99.90;;;;;;5075135;28;20016;-72
2023/12/13 01:07:18;;;;;;;8.32;4.63;;;1.30;99.90;;;;;;5075286;28;20498;-73
2023/12/13 01:09:44;;;;;;;7.35;4.53;;;1.30;99.90;;;;;;5058342;28;20472;-69
2023/12/13 01:12:10;;;;;;;6.80;3.75;;;1.30;99.90;;;;;;5075248;28;20122;-70
2023/12/13 01:14:35;;;;;;;5.50;3.60;;;1.30;99.90;;;;;;5075241;28;20039;-69
2023/12/13 01:17:01;;;;;;;5.28;3.33;;;1.30;99.90;;;;;;5075086;28;20090;-69
2023/12/13 01:19:27;;;;;;;8.13;4.90;;;1.30;99.90;;;;;;5074712;28;20028;-70
2023/12/13 01:21:53;;;;;;;6.75;4.47;;;1.30;99.90;;;;;;5075000;28;20036;-70
2023/12/13 01:24:18;;;;;;;11.82;7.15;;;1.30;99.90;;;;;;5074964;28;20067;-69
2023/12/13 01:26:44;;;;;;;7.70;4.53;;;1.30;99.90;;;;;;5074954;28;20024;-69
2023/12/13 01:29:10;;;;;;;5.80;4.13;;;1.40;99.90;;;;;;5074836;28;20074;-69
2023/12/13 01:31:36;;;;;;;10.20;4.88;;;1.40;99.90;;;;;;5075410;28;20020;-70
2023/12/13 01:34:02;;;;;;;6.70;3.95;;;1.40;99.90;;;;;;5074796;28;20365;-70
2023/12/13 01:36:28;;;;;;;8.50;4.95;;;1.40;99.90;;;;;;5074748;28;20427;-70
2023/12/13 01:38:54;;;;;;;7.28;4.47;;;1.40;99.90;;;;;;5074618;28;20028;-70
2023/12/13 01:41:20;;;;;;;6.10;3.85;;;1.40;99.90;;;;;;5073937;28;20025;-70
2023/12/13 01:43:46;;;;;;;7.43;4.57;;;1.40;99.90;;;;;;5074105;28;20085;-70
2023/12/13 01:46:15;;;;;;;6.13;4.13;;;1.30;99.90;;;;;;5074451;28;20021;-70
2023/12/13 01:48:41;;;;;;;5.95;3.95;;;1.40;99.90;;;;;;5074368;28;20020;-70
2023/12/13 01:51:08;;;;;;;6.78;3.80;;;1.30;99.90;;;;;;5074695;28;20036;-70
2023/12/13 01:53:35;;;;;;;6.32;3.95;;;1.30;99.90;;;;;;5074372;28;20033;-70
2023/12/13 01:56:04;;;;;;;5.25;3.83;;;1.40;99.90;;;;;;5075116;28;20423;-70
2023/12/13 01:58:31;;;;;;;6.65;3.58;;;1.30;99.90;;;;;;5074236;28;20103;-70
2023/12/13 02:00:57;;;;;;;5.57;3.80;;;1.40;99.90;;;;;;5074142;28;20064;-70
2023/12/13 02:03:25;;;;;;;7.68;3.80;;;1.30;99.90;;;;;;5056129;28;20032;-70
2023/12/13 02:05:51;;;;;;;8.80;4.15;;;1.30;99.90;;;;;;5074134;28;20494;-70
2023/12/13 02:08:17;;;;;;;9.05;4.95;;;1.30;99.90;;;;;;5074245;28;20057;-70
2023/12/13 02:10:44;;;;;;;5.90;3.67;;;1.40;99.90;;;;;;5074219;28;20029;-70
2023/12/13 02:13:12;;;;;;;5.70;3.00;;;1.30;99.90;;;;;;5056820;28;20029;-70
2023/12/13 02:15:38;;;;;;;5.95;3.58;;;1.30;99.90;;;;;;5073928;28;20036;-70
2023/12/13 02:18:06;;;;;;;6.00;3.70;;;1.30;99.90;;;;;;5073766;28;20032;-70
2023/12/13 02:20:32;;;;;;;6.57;3.97;;;1.30;99.90;;;;;;5074164;28;20530;-70
2023/12/13 02:22:58;;;;;;;7.22;4.38;;;1.30;99.90;;;;;;5073789;28;20032;-70
2023/12/13 02:25:37;;;;;;;8.43;4.90;;;1.30;99.90;;;;;;5073797;28;20016;-70
2023/12/13 02:28:05;;;;;;;7.63;4.75;;;1.30;99.90;;;;;;5073744;28;20040;-70
2023/12/13 02:30:31;;;;;;;6.65;3.92;;;1.30;99.90;;;;;;5074027;28;20028;-70
2023/12/13 02:32:56;;;;;;;7.57;4.85;;;1.30;99.90;;;;;;5073465;28;20037;-70
2023/12/13 02:35:23;;;;;;;7.93;4.85;;;1.30;99.90;;;;;;5056051;28;20054;-70
2023/12/13 02:37:49;;;;;;;7.70;5.20;;;1.30;99.90;;;;;;5073570;28;20030;-70
2023/12/13 02:40:21;;;;;;;8.10;4.65;;;1.30;99.90;;;;;;5073581;28;20016;-70
2023/12/13 02:42:47;;;;;;;6.60;4.30;;;1.30;99.90;;;;;;5056067;28;20473;-70
2023/12/13 02:45:14;;;;;;;7.70;4.40;;;1.30;99.90;;;;;;5073449;28;20025;-70
2023/12/13 02:47:43;;;;;;;10.52;6.45;;;1.30;99.90;;;;;;5073365;28;20020;-70
2023/12/13 02:50:13;;;;;;;11.60;5.80;;;1.30;99.90;;;;;;5073261;28;20025;-70
2023/12/13 02:52:41;;;;;;;9.43;5.53;;;1.30;99.90;;;;;;5073105;28;20028;-70
2023/12/13 02:55:11;;;;;;;8.32;4.90;;;1.30;99.90;;;;;;5073421;28;20032;-70
2023/12/13 02:57:37;;;;;;;6.07;4.45;;;1.30;99.90;;;;;;5073334;28;20029;-70
2023/12/13 03:00:04;;;;;;;6.57;4.47;;;1.30;99.90;;;;;;5073405;28;20033;-70
2023/12/13 03:02:30;;;;;;;7.50;4.80;;;1.30;99.90;;;;;;5073116;28;20033;-70
2023/12/13 03:04:57;;;;;;;8.07;5.07;;;1.30;99.90;;;;;;5055318;28;20044;-70
2023/12/13 03:07:22;;;;;;;8.45;5.10;;;1.30;99.90;;;;;;5073304;28;20020;-70
2023/12/13 03:09:49;;;;;;;8.05;4.63;;;1.30;99.90;;;;;;5073268;28;20025;-70
2023/12/13 03:12:15;;;;;;;8.02;4.65;;;1.30;99.90;;;;;;5073824;28;20415;-70
2023/12/13 03:14:41;;;;;;;9.00;5.20;;;1.20;99.90;;;;;;5073272;28;20075;-69
2023/12/13 03:17:07;;;;;;;11.63;6.22;;;1.20;99.90;;;;;;5073197;28;20477;-69
2023/12/13 03:19:32;;;;;;;12.55;6.70;;;1.20;99.90;;;;;;5072841;28;20033;-70
2023/12/13 03:21:58;;;;;;;14.43;7.07;;;1.20;99.90;;;;;;5073123;28;20127;-70
2023/12/13 03:24:24;;;;;;;13.68;6.90;;;1.20;99.90;;;;;;5073140;28;20037;-70
2023/12/13 03:26:49;;;;;;;16.83;8.02;;;1.20;99.90;;;;;;5073147;28;20388;-70
2023/12/13 03:29:16;;;;;;;12.02;6.72;;;1.30;99.90;;;;;;5073115;28;20020;-70
2023/12/13 03:31:41;;;;;;;11.25;5.53;;;1.20;99.90;;;;;;5073165;28;20074;-70
2023/12/13 03:34:07;;;;;;;9.15;5.35;;;1.30;99.90;;;;;;5054909;28;20032;-70
2023/12/13 03:36:33;;;;;;;8.85;4.68;;;1.30;99.90;;;;;;5073059;28;20439;-70
2023/12/13 03:38:58;;;;;;;7.75;3.90;;;1.30;99.90;;;;;;5072983;28;20025;-70
2023/12/13 03:41:24;;;;;;;8.40;4.55;;;1.30;99.90;;;;;;5073108;28;20024;-70
2023/12/13 03:43:50;;;;;;;6.32;4.13;;;1.30;99.90;;;;;;5072876;28;20025;-70
2023/12/13 03:46:15;;;;;;;6.90;4.07;;;1.30;99.90;;;;;;5072795;28;20036;-70
2023/12/13 03:48:41;;;;;;;6.00;3.58;;;1.30;99.90;;;;;;5054597;28;20035;-70
2023/12/13 03:51:07;;;;;;;6.82;4.40;;;1.30;99.90;;;;;;5072853;28;20093;-70
2023/12/13 03:53:32;;;;;;;6.65;4.07;;;1.30;99.90;;;;;;5072859;28;20044;-70
2023/12/13 03:55:59;;;;;;;8.88;5.20;;;1.30;99.90;;;;;;5072892;28;20029;-70
2023/12/13 03:58:25;;;;;;;8.75;4.78;;;1.30;99.90;;;;;;5072727;28;20469;-70
2023/12/13 04:00:51;;;;;;;9.80;4.93;;;1.30;99.90;;;;;;5072674;28;20036;-70
2023/12/13 04:03:17;;;;;;;8.07;4.28;;;1.30;99.90;;;;;;5072488;28;20469;-70
2023/12/13 04:05:42;;;;;;;6.65;4.05;;;1.30;99.90;;;;;;5074423;28;20400;-70
2023/12/13 04:08:08;;;;;;;6.53;3.67;;;1.30;99.90;;;;;;5076429;28;20126;-70
2023/12/13 04:10:34;;;;;;;7.70;4.40;;;1.30;99.90;;;;;;5076646;28;20066;-70
2023/12/13 04:13:00;;;;;;;6.55;3.95;;;1.30;99.90;;;;;;5076618;28;20025;-70
2023/12/13 04:15:26;;;;;;;6.82;4.05;;;1.30;99.90;;;;;;5076922;28;20028;-70
2023/12/13 04:17:51;;;;;;;6.65;4.55;;;1.30;99.90;;;;;;5076147;28;20538;-70
2023/12/13 04:20:17;;;;;;;8.30;4.55;;;1.30;99.90;;;;;;5075940;28;20056;-69
2023/12/13 04:22:45;;;;;;;8.02;4.50;;;1.30;99.90;;;;;;5076364;28;20032;-69
2023/12/13 04:25:11;;;;;;;5.82;3.65;;;1.30;99.90;;;;;;5076392;28;20020;-69
2023/12/13 04:27:36;;;;;;;10.25;4.97;;;1.30;99.90;;;;;;5076029;28;20091;-70
2023/12/13 04:30:02;;;;;;;9.18;5.28;;;1.30;99.90;;;;;;5076283;28;20025;-70
2023/12/13 04:32:28;;;;;;;7.90;4.63;;;1.30;99.90;;;;;;5075976;28;20115;-70
2023/12/13 04:34:54;;;;;;;7.40;4.55;;;1.30;99.90;;;;;;5075699;28;20029;-70
2023/12/13 04:37:22;;;;;;;8.30;4.25;;;1.20;99.90;;;;;;5075860;28;20075;-70
2023/12/13 04:39:48;;;;;;;6.78;3.75;;;1.30;99.90;;;;;;5058418;28;20025;-70
2023/12/13 04:42:14;;;;;;;7.18;3.72;;;1.30;99.90;;;;;;5057929;28;20037;-70
2023/12/13 04:44:39;;;;;;;7.13;4.05;;;1.30;99.90;;;;;;5075900;28;20033;-70
2023/12/13 04:47:05;;;;;;;6.78;4.13;;;1.30;99.90;;;;;;5057618;28;20039;-70
2023/12/13 04:49:31;;;;;;;7.03;3.85;;;1.30;99.90;;;;;;5075366;28;20055;-70
2023/12/13 04:51:57;;;;;;;6.53;3.78;;;1.30;99.90;;;;;;5075953;28;20052;-70
2023/12/13 04:54:22;;;;;;;5.22;3.75;;;1.30;99.90;;;;;;5057799;28;20024;-70
2023/12/13 04:56:48;;;;;;;6.90;4.05;;;1.30;99.90;;;;;;5075575;28;20028;-70
2023/12/13 04:59:14;;;;;;;8.90;5.03;;;1.30;99.90;;;;;;5075768;28;20024;-70
2023/12/13 05:01:39;;;;;;;9.85;5.68;;;1.30;99.90;;;;;;5057856;28;20033;-70
2023/12/13 05:04:05;;;;;;;9.85;5.43;;;1.30;99.90;;;;;;5057675;28;20024;-70
2023/12/13 05:06:30;;;;;;;8.52;4.78;;;1.30;99.90;;;;;;5075376;28;20070;-70
2023/12/13 05:08:56;;;;;;;8.35;5.32;;;1.30;99.90;;;;;;5075262;28;20064;-70
2023/12/13 05:11:22;;;;;;;9.15;5.15;;;1.30;99.90;;;;;;5075539;28;20020;-70
2023/12/13 05:13:47;;;;;;;6.53;4.15;;;1.30;99.90;;;;;;5075264;28;20157;-70
2023/12/13 05:16:13;;;;;;;7.00;3.75;;;1.30;99.90;;;;;;5057251;28;20037;-70
2023/12/13 05:18:39;;;;;;;5.35;3.55;;;1.30;99.90;;;;;;5075136;28;20032;-70
2023/12/13 05:21:05;;;;;;;6.45;3.83;;;1.30;99.90;;;;;;5075108;28;20484;-70
2023/12/13 05:23:30;;;;;;;7.53;3.92;;;1.20;99.90;;;;;;5074972;28;20492;-70
2023/12/13 05:25:56;;;;;;;5.45;3.20;;;1.20;99.90;;;;;;5075265;28;20040;-70
2023/12/13 05:28:22;;;;;;;6.80;4.13;;;1.20;99.90;;;;;;5075118;28;20488;-70
2023/12/13 05:30:47;;;;;;;9.90;6.15;;;1.20;99.90;;;;;;5074904;28;20112;-70
2023/12/13 05:33:13;;;;;;;12.48;6.88;;;1.20;99.90;;;;;;5074830;28;20028;-70
2023/12/13 05:35:39;;;;;;;10.65;6.28;;;1.20;99.90;;;;;;5074859;28;20078;-70
2023/12/13 05:38:04;;;;;;;11.23;7.00;;;1.20;99.90;;;;;;5074725;28;20032;-70
2023/12/13 05:40:33;;;;;;;12.90;7.53;;;1.20;99.90;;;;;;5040264;28;20032;-71
2023/12/13 05:43:00;;;;;;;12.27;6.97;;;1.30;99.90;;;;;;5056641;28;20051;-70
2023/12/13 05:45:26;;;;;;;9.27;5.72;;;1.30;99.90;;;;;;5056948;28;20044;-70
2023/12/13 05:47:52;;;;;;;7.35;4.55;;;1.30;99.90;;;;;;5039868;28;20039;-70
2023/12/13 05:50:17;;;;;;;7.18;4.47;;;1.30;99.90;;;;;;5074526;28;20032;-70
2023/12/13 05:52:44;;;;;;;7.25;4.60;;;1.30;99.90;;;;;;5056586;28;20028;-70
2023/12/13 05:55:10;;;;;;;8.32;5.25;;;1.30;99.90;;;;;;5074421;28;20024;-70
2023/12/13 05:57:37;;;;;;;9.75;5.30;;;1.30;99.90;;;;;;5074315;28;20035;-70
2023/12/13 06:00:06;;;;;;;7.68;5.00;;;1.30;99.90;;;;;;5074413;28;20029;-70
2023/12/13 06:02:34;;;;;;;7.25;4.72;;;1.30;99.90;;;;;;5074168;28;20392;-70
2023/12/13 06:05:00;;;;;;;8.07;4.82;;;1.40;99.90;;;;;;5074797;28;20028;-70
2023/12/13 06:07:26;;;;;;;13.52;5.63;;;1.40;99.90;;;;;;5074132;28;20027;-70
2023/12/13 06:09:51;;;;;;;9.82;5.00;;;1.30;99.90;;;;;;5074151;28;20473;-70
2023/12/13 06:12:17;;;;;;;22.83;12.23;;;1.30;99.90;;;;;;5074101;28;20025;-70
2023/12/13 06:14:43;;;;;;;21.42;11.75;;;1.30;99.90;;;;;;5074040;28;20028;-70
2023/12/13 06:17:09;;;;;;;21.92;11.88;;;1.30;99.90;;;;;;5074050;28;20480;-70
2023/12/13 06:19:35;;;;;;;24.58;12.38;;;1.30;99.90;;;;;;5074268;28;20037;-70
2023/12/13 06:22:01;;;;;;;22.00;11.93;;;1.30;99.90;;;;;;5073908;28;20489;-70
2023/12/13 06:24:27;;;;;;;17.13;9.25;;;1.30;99.90;;;;;;5055957;28;20120;-70
2023/12/13 06:26:53;;;;;;;13.95;7.97;;;1.30;99.90;;;;;;5073858;28;20074;-70
2023/12/13 06:29:19;;;;;;;14.10;8.13;;;1.30;99.90;;;;;;5073445;28;20531;-70
2023/12/13 06:31:45;;;;;;;13.32;7.32;;;1.30;99.90;;;;;;5073751;28;20024;-70
2023/12/13 06:34:10;;;;;;;9.70;6.05;;;1.30;99.90;;;;;;5073740;28;20099;-70
2023/12/13 06:36:36;;;;;;;8.32;5.35;;;1.30;99.90;;;;;;5073698;28;20024;-70
2023/12/13 06:39:07;;;;;;;7.55;5.05;;;1.30;99.90;;;;;;5055676;28;20021;-70
2023/12/13 06:41:33;;;;;;;8.48;5.88;;;1.30;99.90;;;;;;5074249;28;20025;-70
2023/12/13 06:44:00;;;;;;;7.75;4.93;;;1.30;99.90;;;;;;5073575;28;20032;-70
2023/12/13 06:46:26;;;;;;;10.32;6.30;;;1.30;99.90;;;;;;5074157;28;20376;-70
2023/12/13 06:48:53;;;;;;;15.43;8.43;;;1.30;99.90;;;;;;5055679;28;20099;-70
2023/12/13 06:51:19;;;;;;;12.55;7.35;;;1.30;99.90;;;;;;5073561;28;20036;-70
2023/12/13 06:53:46;;;;;;;9.32;6.55;;;1.30;99.90;;;;;;5055939;28;20036;-70
2023/12/13 06:56:12;;;;;;;15.80;7.43;;;1.30;99.90;;;;;;5074062;28;20082;-70
2023/12/13 06:58:38;;;;;;;10.20;5.68;;;1.30;99.90;;;;;;5055450;28;20040;-70
2023/12/13 07:01:04;;;;;;;10.45;5.90;;;1.30;99.90;;;;;;5055335;28;20039;-71
2023/12/13 07:03:30;;;;;;;11.00;6.35;;;1.30;99.90;;;;;;5073322;28;20491;-70
2023/12/13 07:05:55;;;;;;;10.57;6.63;;;1.30;99.90;;;;;;5073400;28;20032;-71
2023/12/13 07:08:21;;;;;;;11.73;6.82;;;1.30;99.90;;;;;;5073295;28;20029;-71
2023/12/13 07:10:47;;;;;;;14.05;8.07;;;1.30;99.90;;;;;;5041894;23;20460;-86
2023/12/13 07:13:13;;;;;;;11.88;7.95;;;1.30;99.90;;;;;;5016105;28;20030;-86
2023/12/13 07:15:39;;;;;;;17.80;9.90;;;1.40;99.90;;;;;;5016005;28;20392;-85
2023/12/13 07:18:04;;;;;;;16.02;9.63;;;1.40;99.90;;;;;;5047016;28;20037;-86
2023/12/13 07:20:30;;;;;;;17.33;10.20;;;1.30;99.90;;;;;;5055602;28;20039;-85
2023/12/13 07:22:57;;;;;;;18.27;10.35;;;1.30;99.90;;;;;;5073514;28;20036;-85
2023/12/13 07:25:22;;;;;;;15.98;9.95;;;1.40;99.90;;;;;;5071951;28;20017;-85
2023/12/13 07:27:48;;;;;;;16.42;10.40;;;1.30;99.90;;;;;;5056523;28;20104;-88
2023/12/13 07:30:14;;;;;;;21.35;13.40;;;1.30;99.90;;;;;;5071874;28;20021;-87
2023/12/13 07:32:41;;;;;;;25.65;13.88;;;1.30;99.90;;;;;;5055403;28;20029;-88
2023/12/13 07:35:08;;;;;;;20.77;11.68;;;1.40;99.90;;;;;;5072122;28;20373;-88
2023/12/13 07:37:35;;;;;;;22.05;11.80;;;1.30;99.90;;;;;;5073066;28;20031;-88
2023/12/13 07:40:03;;;;;;;18.52;11.48;;;1.40;99.90;;;;;;5047984;28;20033;-87
2023/12/13 07:42:29;;;;;;;20.95;12.35;;;1.40;99.90;;;;;;5039477;28;20120;-88
2023/12/13 07:44:54;;;;;;;17.45;10.15;;;1.40;99.90;;;;;;5039124;28;20061;-88
2023/12/13 07:47:20;;;;;;;15.40;9.18;;;1.40;99.90;;;;;;5049633;28;20218;-88
2023/12/13 07:49:45;;;;;;;15.07;8.68;;;1.40;99.90;;;;;;5042534;28;20029;-88
2023/12/13 07:52:12;;;;;;;12.00;7.72;;;1.40;99.90;;;;;;5042394;28;20123;-87
2023/12/13 07:54:37;;;;;;;11.98;7.07;;;1.40;99.90;;;;;;5059358;28;20032;-87
2023/12/13 07:57:03;;;;;;;11.68;7.50;;;1.40;99.90;;;;;;5058841;28;20139;-88
2023/12/13 07:59:29;;;;;;;10.23;6.28;;;1.40;99.90;;;;;;5075406;28;20025;-87
2023/12/13 08:01:54;;;;;;;11.07;6.57;;;1.50;99.90;;;;;;5075482;28;20025;-88
2023/12/13 08:04:20;;;;;;;9.75;5.95;;;1.50;99.90;;;;;;5075577;28;20032;-88
2023/12/13 08:06:46;;;;;;;11.85;6.45;;;1.50;99.90;;;;;;5058797;28;20025;-88
2023/12/13 08:09:12;;;;;;;9.55;6.07;;;1.50;99.90;;;;;;5055636;28;20032;-88
2023/12/13 08:11:38;;;;;;;8.82;5.68;;;1.50;99.90;;;;;;5071985;28;20025;-88
2023/12/13 08:14:04;;;;;;;9.77;4.88;;;1.50;99.90;;;;;;5056540;28;20365;-88
2023/12/13 08:16:30;;;;;;;7.40;4.20;;;1.50;99.90;;;;;;5058637;28;20034;-88
2023/12/13 08:18:56;;;;;;;8.73;4.28;;;1.50;99.90;;;;;;5058460;28;20032;-88
2023/12/13 08:21:23;;;;;;;6.28;3.80;;;1.50;99.90;;;;;;5058457;28;20112;-88
2023/12/13 08:23:50;;;;;;;7.40;4.32;;;1.50;99.90;;;;;;5058506;28;20036;-88
2023/12/13 08:26:16;;;;;;;6.55;4.10;;;1.50;99.90;;;;;;5074742;28;20115;-88
2023/12/13 08:28:42;;;;;;;7.70;4.28;;;1.50;99.90;;;;;;5041800;28;20484;-88
2023/12/13 08:31:09;;;;;;;6.70;3.67;;;1.50;99.90;;;;;;5041435;28;20047;-87
2023/12/13 08:33:41;;;;;;;6.28;3.67;;;1.50;99.90;;;;;;5058368;28;20060;-88
2023/12/13 08:36:13;;;;;;;8.35;5.07;;;1.60;99.90;;;;;;5058094;28;20111;-88
2023/12/13 08:38:40;;;;;;;9.95;5.57;;;1.60;99.90;;;;;;5074710;28;20032;-87
2023/12/13 08:41:07;;;;;;;14.80;7.38;;;1.60;99.90;;;;;;5055993;28;20056;-87
2023/12/13 08:43:33;;;;;;;12.63;6.90;;;1.60;99.90;;;;;;5054617;28;20033;-87
2023/12/13 08:45:59;;;;;;;12.40;6.78;;;1.60;99.90;;;;;;5054464;28;20025;-88
2023/12/13 08:48:25;;;;;;;12.85;7.03;;;1.60;99.90;;;;;;5073971;28;20032;-87
2023/12/13 08:50:51;;;;;;;11.93;7.72;;;1.70;99.90;;;;;;5057470;28;20112;-88
2023/12/13 08:53:17;;;;;;;12.48;7.00;;;1.70;99.90;;;;;;5074492;28;20111;-87
2023/12/13 08:55:43;;;;;;;17.92;8.68;;;1.80;99.90;;;;;;5057683;28;20025;-87
2023/12/13 08:58:09;;;;;;;15.52;8.40;;;1.80;99.90;;;;;;5074331;28;20070;-87
2023/12/13 09:00:34;;;;;;;17.30;7.97;;;1.80;99.90;;;;;;5057739;28;20120;-87
2023/12/13 09:03:01;;;;;;;15.43;8.35;;;1.80;99.90;;;;;;5041161;28;20028;-87
2023/12/13 09:05:27;;;;;;;23.65;12.45;;;1.90;99.90;;;;;;5041553;28;20033;-87
2023/12/13 09:07:53;;;;;;;23.27;13.45;;;1.90;99.90;;;;;;5057526;28;20361;-87
2023/12/13 09:10:20;;;;;;;27.48;16.63;;;1.90;99.90;;;;;;5045596;28;20065;-87
2023/12/13 09:12:46;;;;;;;25.05;17.48;;;1.90;99.90;;;;;;5037783;28;20098;-87
2023/12/13 09:15:12;;;;;;;20.33;15.52;;;2.00;99.90;;;;;;5054004;28;20072;-87
2023/12/13 09:17:39;;;;;;;21.88;15.98;;;2.00;99.90;;;;;;5066967;28;20033;-87
2023/12/13 09:20:09;;;;;;;15.80;10.63;;;2.00;99.90;;;;;;5074086;28;20107;-87
2023/12/13 09:22:35;;;;;;;13.63;8.30;;;2.10;99.90;;;;;;5057636;28;20123;-88
2023/12/13 09:25:00;;;;;;;15.82;9.80;;;2.10;99.90;;;;;;5056915;28;20064;-88
2023/12/13 09:27:26;;;;;;;16.17;8.52;;;2.10;99.90;;;;;;5057427;28;20028;-88
2023/12/13 09:29:52;;;;;;;14.82;8.95;;;2.10;99.90;;;;;;5040328;28;20115;-87
2023/12/13 09:32:18;;;;;;;18.60;12.00;;;2.10;99.90;;;;;;5073818;28;20063;-88
2023/12/13 09:34:44;;;;;;;21.98;13.00;;;2.10;99.90;;;;;;5057193;28;20037;-88
2023/12/13 09:37:09;;;;;;;21.80;12.48;;;2.20;99.90;;;;;;5056875;28;20035;-88
2023/12/13 09:39:38;;;;;;;21.77;12.20;;;2.20;99.90;;;;;;5050877;28;20068;-88
2023/12/13 09:42:04;;;;;;;16.63;10.93;;;2.20;99.90;;;;;;5036917;28;20025;-88
2023/12/13 09:44:32;;;;;;;20.92;12.25;;;2.20;99.90;;;;;;5037001;28;20025;-88
2023/12/13 09:47:01;;;;;;;20.23;11.95;;;2.20;99.90;;;;;;5044348;28;20025;-88
2023/12/13 09:49:28;;;;;;;31.30;15.80;;;2.30;99.90;;;;;;5073327;28;20016;-88
2023/12/13 09:51:55;;;;;;;29.90;13.73;;;2.30;99.90;;;;;;5073307;28;20123;-88
2023/12/13 09:54:21;;;;;;;28.30;13.52;;;2.30;99.90;;;;;;5056646;28;20032;-85
2023/12/13 09:56:47;;;;;;;26.98;13.02;;;2.30;99.90;;;;;;5057163;28;20024;-88
2023/12/13 09:59:12;;;;;;;21.42;12.25;;;2.30;99.90;;;;;;5056531;28;20370;-88
2023/12/13 10:01:38;;;;;;;20.38;11.38;;;2.30;99.90;;;;;;5073234;28;20074;-88
2023/12/13 10:04:04;;;;;;;16.88;10.45;;;2.30;99.90;;;;;;5072549;28;20039;-88
2023/12/13 10:06:31;;;;;;;15.90;9.77;;;2.30;99.90;;;;;;5056906;28;20026;-87
2023/12/13 10:08:57;;;;;;;15.77;9.93;;;2.40;99.90;;;;;;5072628;28;20439;-87
2023/12/13 10:11:23;;;;;;;24.80;11.98;;;2.40;99.90;;;;;;5052901;28;20065;-88
2023/12/13 10:13:49;;;;;;;24.55;12.88;;;2.40;99.90;;;;;;5052911;28;20057;-88
2023/12/13 10:16:16;;;;;;;21.80;12.60;;;2.40;99.90;;;;;;5037794;28;20052;-88
2023/12/13 10:18:42;;;;;;;20.50;12.65;;;2.40;99.90;;;;;;5072930;28;20029;-89
2023/12/13 10:21:09;;;;;;;22.40;12.45;;;2.30;99.90;;;;;;5072793;28;20115;-89
2023/12/13 10:23:38;;;;;;;21.10;11.52;;;2.30;99.90;;;;;;5056075;28;20470;-88
2023/12/13 10:26:05;;;;;;;19.35;10.80;;;2.30;99.90;;;;;;5056115;28;20032;-89
2023/12/13 10:28:34;;;;;;;16.65;11.30;;;2.40;99.90;;;;;;5073948;28;20021;-89
2023/12/13 10:31:00;;;;;;;17.02;10.60;;;2.40;99.90;;;;;;5072669;28;20119;-88
2023/12/13 10:33:26;;;;;;;21.00;10.93;;;2.40;99.90;;;;;;5072667;28;20129;-89
2023/12/13 10:35:56;;;;;;;20.73;11.45;;;2.40;99.90;;;;;;5056468;28;20039;-89
2023/12/13 10:38:25;;;;;;;17.48;10.43;;;2.40;99.90;;;;;;5056345;28;20028;-89
2023/12/13 10:40:51;;;;;;;22.50;12.50;;;2.50;99.90;;;;;;5039844;28;20033;-89
2023/12/13 10:43:19;;;;;;;18.92;12.52;;;2.50;99.90;;;;;;5052369;28;20111;-89
2023/12/13 10:45:54;;;;;;;22.73;12.25;;;2.50;99.90;;;;;;5035856;28;20040;-88
2023/12/13 10:48:23;;;;;;;27.02;14.32;;;2.60;99.90;;;;;;5071093;28;20099;-88
2023/12/13 10:50:50;;;;;;;22.73;13.23;;;2.60;99.90;;;;;;5055795;28;20472;-89
2023/12/13 10:53:18;;;;;;;26.35;15.23;;;2.60;99.90;;;;;;5072410;28;20039;-89
2023/12/13 10:55:44;;;;;;;28.30;14.90;;;2.60;99.90;;;;;;5073359;28;20028;-89
2023/12/13 10:58:11;;;;;;;24.20;14.60;;;2.70;99.90;;;;;;5072260;28;20086;-89
2023/12/13 11:00:38;;;;;;;29.15;16.02;;;2.70;99.90;;;;;;5073455;28;20415;-89
2023/12/13 11:03:48;;;;;;;26.08;14.57;;;2.70;99.90;;;;;;5072863;28;20029;-89
2023/12/13 11:06:16;;;;;;;20.65;13.13;;;2.70;99.90;;;;;;5056712;28;20056;-89
2023/12/13 11:08:43;;;;;;;22.15;12.50;;;2.70;99.90;;;;;;5071958;28;20086;-89
2023/12/13 11:11:12;;;;;;;24.42;14.75;;;2.70;99.90;;;;;;5053472;28;20120;-89
2023/12/13 11:13:46;;;;;;;22.17;13.35;;;2.70;99.90;;;;;;5051845;28;20025;-89
2023/12/13 11:16:16;;;;;;;25.45;13.35;;;2.70;99.90;;;;;;5054323;28;20033;-89
2023/12/13 11:18:42;;;;;;;26.23;15.35;;;2.80;99.90;;;;;;5072043;28;20484;-89
2023/12/13 11:21:07;;;;;;;27.13;15.90;;;2.80;99.90;;;;;;5072227;28;20039;-89
2023/12/13 11:23:35;;;;;;;25.98;15.82;;;2.80;99.90;;;;;;5071992;28;20035;-89
2023/12/13 11:26:00;;;;;;;22.67;14.68;;;2.80;99.90;;;;;;5055424;28;20040;-86
2023/12/13 11:28:26;;;;;;;28.08;16.45;;;2.80;99.90;;;;;;5055505;28;20058;-86
2023/12/13 11:30:55;;;;;;;31.98;17.40;;;2.70;99.90;;;;;;5055713;28;20116;-86
2023/12/13 11:33:22;;;;;;;34.00;17.75;;;2.70;99.90;;;;;;5055394;28;20052;-86
2023/12/13 11:35:50;;;;;;;30.58;16.75;;;2.70;99.90;;;;;;5055566;28;20025;-86
2023/12/13 11:38:16;;;;;;;26.38;15.23;;;2.70;99.90;;;;;;5072056;28;20035;-86
2023/12/13 11:40:42;;;;;;;28.05;15.48;;;2.60;99.90;;;;;;5040053;28;20040;-86
2023/12/13 11:43:08;;;;;;;25.40;15.70;;;2.60;99.90;;;;;;5035236;28;20029;-86
2023/12/13 11:45:34;;;;;;;25.20;15.07;;;2.60;99.90;;;;;;5035339;28;20025;-86
2023/12/13 11:48:03;;;;;;;25.17;14.27;;;2.60;99.90;;;;;;5067337;28;20087;-86
2023/12/13 11:50:28;;;;;;;27.15;15.00;;;2.60;99.90;;;;;;5030782;28;20033;-85
2023/12/13 11:52:54;;;;;;;25.63;15.32;;;2.60;99.90;;;;;;5015713;28;20029;-86
2023/12/13 11:55:20;;;;;;;35.70;20.20;;;2.60;99.90;;;;;;5016317;28;20029;-86
2023/12/13 11:57:53;;;;;;;33.28;19.70;;;2.60;99.90;;;;;;5016085;28;20047;-86
2023/12/13 12:00:19;;;;;;;34.65;18.85;;;2.60;99.90;;;;;;5032082;28;20133;-86
2023/12/13 12:02:45;;;;;;;32.78;19.98;;;2.60;99.90;;;;;;5015752;28;20516;-86
2023/12/13 12:05:14;;;;;;;35.83;20.20;;;2.60;99.90;;;;;;5015618;28;20036;-86
2023/12/13 12:07:40;;;;;;;31.17;17.92;;;2.60;99.90;;;;;;5015442;28;20030;-86
2023/12/13 12:10:07;;;;;;;52.92;26.08;;;2.70;99.90;;;;;;5025601;28;20090;-86
2023/12/13 12:12:36;;;;;;;53.78;25.45;;;2.70;99.90;;;;;;5053695;28;20396;-86
2023/12/13 12:15:06;;;;;;;49.95;23.92;;;2.70;99.90;;;;;;5052672;28;20029;-86
2023/12/13 12:17:32;;;;;;;47.05;22.55;;;2.70;99.90;;;;;;5063911;28;20021;-85
2023/12/13 12:19:59;;;;;;;38.95;19.90;;;2.70;99.90;;;;;;5055778;28;20033;-85
2023/12/13 12:22:25;;;;;;;37.72;18.27;;;2.80;99.90;;;;;;5055923;28;20033;-85
2023/12/13 12:24:51;;;;;;;33.88;17.02;;;2.80;99.90;;;;;;5071787;28;20119;-86
2023/12/13 12:27:23;;;;;;;26.80;15.30;;;2.80;99.90;;;;;;5075548;28;20028;-85
2023/12/13 12:29:50;;;;;;;25.55;14.95;;;2.90;99.90;;;;;;5058676;28;20035;-85
2023/12/13 12:32:16;;;;;;;24.77;14.07;;;3.00;99.90;;;;;;5058965;28;20033;-85
2023/12/13 12:34:47;;;;;;;22.85;13.10;;;3.00;99.90;;;;;;5058703;28;20029;-85
2023/12/13 12:37:16;;;;;;;24.15;13.35;;;3.00;99.90;;;;;;5075041;28;20482;-85
2023/12/13 12:39:42;;;;;;;25.98;16.23;;;3.00;99.90;;;;;;5052146;28;20071;-85
2023/12/13 12:42:09;;;;;;;26.00;16.52;;;3.10;99.90;;;;;;5038162;28;20108;-85
2023/12/13 12:44:35;;;;;;;27.38;16.67;;;3.00;99.90;;;;;;5055119;28;20021;-85